createdAt,value
2018-02-22T00:00:15.827Z,96.86
2018-02-22T00:02:44.499Z,96.65
2018-02-22T00:05:13.445Z,96.96
2018-02-22T00:07:47.073Z,97.47
2018-02-22T00:10:16.171Z,97.16
2018-02-22T00:12:45.288Z,97.29
2018-02-22T00:15:14.265Z,96.41
2018-02-22T00:17:43.274Z,96.65
2018-02-22T00:20:13.948Z,95.82
2018-02-22T00:22:43.799Z,94.65
2018-02-22T00:25:13.815Z,94.21
2018-02-22T00:27:42.910Z,93.96
2018-02-22T00:30:11.894Z,93.66
2018-02-22T00:32:41.314Z,93.56
2018-02-22T00:35:10.510Z,93.24
2018-02-22T00:37:41.919Z,92.69
2018-02-22T00:40:10.894Z,91.79
2018-02-22T00:42:39.945Z,91.75
2018-02-22T00:45:12.626Z,91.62
2018-02-22T00:47:41.722Z,91.32
2018-02-22T00:50:11.977Z,90.91
2018-02-22T00:52:41.033Z,90.61
2018-02-22T00:55:10.028Z,90.48
2018-02-22T00:57:39.027Z,90.39
2018-02-22T01:00:09.857Z,89.65
2018-02-22T01:02:39.706Z,89.46
2018-02-22T01:05:08.711Z,89.29
2018-02-22T01:07:38.884Z,89.13
2018-02-22T01:10:08.192Z,88.97
2018-02-22T01:12:37.181Z,89.32
2018-02-22T01:15:07.083Z,89.18
2018-02-22T01:17:36.086Z,88.87
2018-02-22T01:20:05.107Z,88.09
2018-02-22T01:22:36.156Z,88.47
2018-02-22T01:25:05.062Z,88.51
2018-02-22T01:27:34.009Z,88.66
2018-02-22T01:30:03.110Z,88.57
2018-02-22T01:32:32.205Z,88.11
2018-02-22T01:35:01.196Z,87.74
2018-02-22T01:37:31.163Z,88.34
2018-02-22T01:40:00.155Z,88.07
2018-02-22T01:42:29.921Z,87.92
2018-02-22T01:44:58.906Z,87.97
2018-02-22T01:47:27.903Z,88.09
2018-02-22T01:49:57.900Z,87.75
2018-02-22T01:52:28.554Z,88.06
2018-02-22T01:54:57.651Z,87.89
2018-02-22T01:57:26.747Z,87.39
2018-02-22T01:59:56.770Z,87.83
2018-02-22T02:02:25.858Z,87.20
2018-02-22T02:04:54.856Z,87.52
2018-02-22T02:07:25.074Z,87.48
2018-02-22T02:09:54.170Z,87.33
2018-02-22T02:12:24.082Z,87.75
2018-02-22T02:14:55.644Z,88.05
2018-02-22T02:17:24.606Z,88.14
2018-02-22T02:19:53.733Z,88.30
2018-02-22T02:22:23.692Z,88.50
2018-02-22T02:24:53.495Z,88.59
2018-02-22T02:27:22.451Z,89.02
2018-02-22T02:29:51.383Z,89.31
2018-02-22T02:32:20.337Z,89.29
2018-02-22T02:34:49.339Z,89.58
2018-02-22T02:37:18.945Z,89.71
2018-02-22T02:39:48.445Z,89.68
2018-02-22T02:42:17.365Z,89.90
2018-02-22T02:44:46.461Z,89.67
2018-02-22T02:47:15.253Z,89.65
2018-02-22T02:49:44.316Z,90.06
2018-02-22T02:52:14.748Z,89.82
2018-02-22T02:54:44.096Z,89.53
2018-02-22T02:57:14.053Z,89.17
2018-02-22T02:59:43.985Z,89.11
2018-02-22T03:02:13.719Z,88.80
2018-02-22T03:04:42.676Z,88.58
2018-02-22T03:07:12.631Z,89.16
2018-02-22T03:09:41.593Z,89.11
2018-02-22T03:12:10.995Z,89.57
2018-02-22T03:14:41.527Z,89.19
2018-02-22T03:17:10.653Z,89.79
2018-02-22T03:19:39.544Z,89.98
2018-02-22T03:22:08.608Z,90.39
2018-02-22T03:24:37.599Z,90.29
2018-02-22T03:27:06.490Z,90.52
2018-02-22T03:29:36.461Z,90.66
2018-02-22T03:32:05.304Z,90.53
2018-02-22T03:34:34.293Z,90.93
2018-02-22T03:37:03.390Z,91.00
2018-02-22T03:39:32.413Z,91.39
2018-02-22T03:42:01.305Z,91.67
2018-02-22T03:44:35.425Z,91.65
2018-02-22T03:47:04.384Z,92.21
2018-02-22T03:49:33.366Z,92.64
2018-02-22T03:52:03.189Z,91.69
2018-02-22T03:54:32.390Z,92.08
2018-02-22T03:57:01.520Z,92.43
2018-02-22T03:59:31.400Z,92.44
2018-02-22T04:02:00.483Z,92.74
2018-02-22T04:04:29.479Z,92.94
2018-02-22T04:07:00.125Z,92.81
2018-02-22T04:09:29.055Z,92.72
2018-02-22T04:11:58.111Z,92.65
2018-02-22T04:14:27.001Z,92.32
2018-02-22T04:16:55.883Z,92.33
2018-02-22T04:19:25.198Z,92.80
2018-02-22T04:21:54.285Z,92.97
2018-02-22T04:24:23.224Z,92.52
2018-02-22T04:26:52.304Z,92.18
2018-02-22T04:29:22.294Z,92.42
2018-02-22T04:31:52.102Z,92.45
2018-02-22T04:34:21.107Z,92.80
2018-02-22T04:36:50.806Z,92.79
2018-02-22T04:39:19.909Z,92.58
2018-02-22T04:41:49.002Z,92.66
2018-02-22T04:44:20.192Z,92.94
2018-02-22T04:46:49.864Z,92.75
2018-02-22T04:49:18.883Z,92.97
2018-02-22T04:51:47.944Z,92.68
2018-02-22T04:54:16.837Z,92.52
2018-02-22T04:56:46.074Z,92.74
2018-02-22T04:59:17.800Z,92.53
2018-02-22T05:01:49.186Z,92.61
2018-02-22T05:04:19.059Z,93.09
2018-02-22T05:06:48.054Z,92.97
2018-02-22T05:09:17.095Z,93.31
2018-02-22T05:11:46.971Z,93.32
2018-02-22T05:14:16.058Z,93.13
2018-02-22T05:16:45.261Z,93.17
2018-02-22T05:19:15.826Z,93.01
2018-02-22T05:21:44.887Z,92.82
2018-02-22T05:24:14.730Z,92.72
2018-02-22T05:26:45.529Z,93.07
2018-02-22T05:29:14.601Z,93.28
2018-02-22T05:31:43.631Z,93.35
2018-02-22T05:34:14.321Z,93.35
2018-02-22T05:36:43.350Z,93.54
2018-02-22T05:39:12.312Z,93.75
2018-02-22T05:41:42.344Z,93.59
2018-02-22T05:44:11.356Z,93.34
2018-02-22T05:46:41.111Z,93.53
2018-02-22T05:49:14.250Z,93.25
2018-02-22T05:51:43.216Z,93.46
2018-02-22T05:54:12.240Z,93.91
2018-02-22T05:56:42.942Z,94.15
2018-02-22T05:59:11.992Z,94.19
2018-02-22T06:01:41.105Z,94.71
2018-02-22T06:04:11.084Z,94.61
2018-02-22T06:06:40.159Z,94.84
2018-02-22T06:09:09.177Z,94.76
2018-02-22T06:11:38.319Z,94.85
2018-02-22T06:14:07.369Z,95.02
2018-02-22T06:16:36.364Z,95.34
2018-02-22T06:19:05.356Z,95.79
2018-02-22T06:21:34.451Z,96.20
2018-02-22T06:24:03.551Z,96.58
2018-02-22T06:26:33.398Z,97.16
2018-02-22T06:29:02.455Z,97.27
2018-02-22T06:31:32.515Z,97.40
2018-02-22T06:34:01.570Z,97.94
2018-02-22T06:36:30.770Z,97.82
2018-02-22T06:38:59.661Z,98.01
2018-02-22T06:41:29.474Z,98.36
2018-02-22T06:43:58.674Z,98.37
2018-02-22T06:46:28.588Z,98.71
2018-02-22T06:48:59.265Z,98.82
2018-02-22T06:51:28.874Z,99.18
2018-02-22T06:53:57.958Z,99.36
2018-02-22T06:56:27.826Z,99.70
2018-02-22T06:58:56.940Z,100.00
2018-02-22T07:01:25.923Z,100.00
2018-02-22T07:03:57.542Z,100.00
2018-02-22T07:06:26.478Z,100.00
2018-02-22T07:08:55.577Z,100.00
2018-02-22T07:11:25.661Z,100.00
2018-02-22T07:13:54.608Z,100.00
2018-02-22T07:16:23.704Z,100.00
2018-02-22T07:18:52.884Z,100.00
2018-02-22T07:21:21.877Z,100.00
2018-02-22T07:23:50.847Z,100.00
2018-02-22T07:26:19.962Z,100.00
2018-02-22T07:28:48.987Z,100.00
2018-02-22T07:31:18.058Z,100.00
2018-02-22T07:33:47.261Z,100.00
2018-02-22T07:36:17.738Z,100.00
2018-02-22T07:38:48.946Z,100.00
2018-02-22T07:41:18.060Z,100.00
2018-02-22T07:43:47.160Z,100.00
2018-02-22T07:46:17.959Z,100.00
2018-02-22T07:48:46.945Z,100.00
2018-02-22T07:51:16.050Z,100.00
2018-02-22T07:53:46.223Z,100.00
2018-02-22T07:56:15.263Z,100.00
2018-02-22T07:58:44.156Z,100.00
2018-02-22T08:01:13.376Z,100.00
2018-02-22T08:03:42.334Z,100.00
2018-02-22T08:06:11.359Z,100.00
2018-02-22T08:08:42.065Z,100.00
2018-02-22T08:11:10.956Z,100.00
2018-02-22T08:13:40.560Z,100.00
2018-02-22T08:16:10.516Z,100.00
2018-02-22T08:18:40.189Z,100.00
2018-02-22T08:21:09.095Z,100.00
2018-02-22T08:23:38.922Z,100.00
2018-02-22T08:26:07.889Z,100.00
2018-02-22T08:28:37.084Z,100.00
2018-02-22T08:31:07.720Z,100.00
2018-02-22T08:33:37.585Z,100.00
2018-02-22T08:36:06.627Z,100.00
2018-02-22T08:38:36.111Z,100.00
2018-02-22T08:41:05.025Z,100.00
2018-02-22T08:43:35.005Z,100.00
2018-02-22T08:46:04.138Z,100.00
2018-02-22T08:48:34.064Z,100.00
2018-02-22T08:51:03.078Z,100.00
2018-02-22T08:53:33.076Z,100.00
2018-02-22T08:56:02.310Z,100.00
2018-02-22T08:58:31.404Z,100.00
2018-02-22T09:01:00.493Z,100.00
2018-02-22T09:03:30.358Z,100.00
2018-02-22T09:06:00.428Z,100.00
2018-02-22T09:08:30.273Z,100.00
2018-02-22T09:11:01.863Z,100.00
2018-02-22T09:13:32.528Z,100.00
2018-02-22T09:16:02.000Z,100.00
2018-02-22T09:18:31.116Z,100.00
2018-02-22T09:21:01.335Z,100.00
2018-02-22T09:23:30.214Z,100.00
2018-02-22T09:25:59.203Z,100.00
2018-02-22T09:28:28.195Z,100.00
2018-02-22T09:30:58.139Z,100.00
2018-02-22T09:33:27.974Z,100.00
2018-02-22T09:35:57.067Z,100.00
2018-02-22T09:38:26.121Z,100.00
2018-02-22T09:40:56.038Z,100.00
2018-02-22T09:43:24.992Z,100.00
2018-02-22T09:45:54.904Z,100.00
2018-02-22T09:48:23.911Z,100.00
2018-02-22T09:50:53.856Z,100.00
2018-02-22T09:53:22.850Z,100.00
2018-02-22T09:55:52.050Z,100.00
2018-02-22T09:58:21.970Z,100.00
2018-02-22T10:00:51.370Z,100.00
2018-02-22T10:03:21.280Z,100.00
2018-02-22T10:05:51.606Z,100.00
2018-02-22T10:08:20.517Z,100.00
2018-02-22T10:10:49.486Z,100.00
2018-02-22T10:13:18.893Z,100.00
2018-02-22T10:15:48.810Z,100.00
2018-02-22T10:18:18.826Z,100.00
2018-02-22T10:20:49.743Z,100.00
2018-02-22T10:23:19.686Z,100.00
2018-02-22T10:25:48.609Z,100.00
2018-02-22T10:28:17.674Z,100.00
2018-02-22T10:30:46.696Z,100.00
2018-02-22T10:33:15.653Z,100.00
2018-02-22T10:35:47.039Z,100.00
2018-02-22T10:38:15.999Z,100.00
2018-02-22T10:40:44.991Z,100.00
2018-02-22T10:43:15.957Z,100.00
2018-02-22T10:45:45.743Z,100.00
2018-02-22T10:48:14.695Z,100.00
2018-02-22T10:50:43.732Z,100.00
2018-02-22T10:53:12.811Z,100.00
2018-02-22T10:55:41.824Z,100.00
2018-02-22T10:58:11.119Z,100.00
2018-02-22T11:00:45.543Z,100.00
2018-02-22T11:03:15.398Z,100.00
2018-02-22T11:05:44.456Z,100.00
2018-02-22T11:08:13.490Z,100.00
2018-02-22T11:10:43.543Z,100.00
2018-02-22T11:13:12.576Z,100.00
2018-02-22T11:15:41.661Z,100.00
2018-02-22T11:18:12.600Z,100.00
2018-02-22T11:20:41.694Z,100.00
2018-02-22T11:23:11.549Z,100.00
2018-02-22T11:25:40.568Z,100.00
2018-02-22T11:28:10.472Z,100.00
2018-02-22T11:30:41.083Z,100.00
2018-02-22T11:33:10.937Z,100.00
2018-02-22T11:35:40.157Z,100.00
2018-02-22T11:38:09.243Z,100.00
2018-02-22T11:40:38.252Z,100.00
2018-02-22T11:43:07.288Z,100.00
2018-02-22T11:45:36.243Z,100.00
2018-02-22T11:48:06.363Z,100.00
2018-02-22T11:50:36.378Z,100.00
2018-02-22T11:53:05.371Z,100.00
2018-02-22T11:55:34.783Z,100.00
2018-02-22T11:58:04.010Z,100.00
2018-02-22T12:00:33.019Z,100.00
2018-02-22T12:03:02.827Z,100.00
2018-02-22T12:05:31.820Z,100.00
2018-02-22T12:08:02.218Z,100.00
2018-02-22T12:10:33.857Z,100.00
2018-02-22T12:13:02.835Z,100.00
2018-02-22T12:15:31.955Z,100.00
2018-02-22T12:18:01.659Z,100.00
2018-02-22T12:20:32.191Z,100.00
2018-02-22T12:23:01.899Z,100.00
2018-02-22T12:25:32.100Z,100.00
2018-02-22T12:28:01.127Z,100.00
2018-02-22T12:30:30.163Z,100.00
2018-02-22T12:32:59.759Z,100.00
2018-02-22T12:35:28.695Z,100.00
2018-02-22T12:37:57.806Z,100.00
2018-02-22T12:40:27.912Z,100.00
2018-02-22T12:42:57.034Z,100.00
2018-02-22T12:45:26.345Z,100.00
2018-02-22T12:47:55.423Z,100.00
2018-02-22T12:50:24.484Z,100.00
2018-02-22T12:52:54.344Z,100.00
2018-02-22T12:55:25.168Z,100.00
2018-02-22T12:57:54.163Z,100.00
2018-02-22T13:00:23.204Z,100.00
2018-02-22T13:02:54.096Z,100.00
2018-02-22T13:05:23.156Z,100.00
2018-02-22T13:07:52.346Z,100.00
2018-02-22T13:10:22.925Z,100.00
2018-02-22T13:12:52.059Z,100.00
2018-02-22T13:15:21.152Z,100.00
2018-02-22T13:17:50.622Z,100.00
2018-02-22T13:20:20.059Z,100.00
2018-02-22T13:22:49.232Z,100.00
2018-02-22T13:25:19.222Z,100.00
2018-02-22T13:27:48.398Z,100.00
2018-02-22T13:30:17.440Z,100.00
2018-02-22T13:32:58.362Z,100.00
2018-02-22T13:35:27.560Z,100.00
2018-02-22T13:38:17.394Z,100.00
2018-02-22T13:40:47.249Z,100.00
2018-02-22T13:43:16.603Z,100.00
2018-02-22T13:45:46.732Z,100.00
2018-02-22T13:48:16.647Z,100.00
2018-02-22T13:51:00.166Z,100.00
2018-02-22T13:53:29.416Z,100.00
2018-02-22T13:55:58.574Z,100.00
2018-02-22T13:58:28.410Z,100.00
2018-02-22T14:01:24.513Z,100.00
2018-02-22T14:03:55.908Z,100.00
2018-02-22T14:06:25.167Z,100.00
2018-02-22T14:08:54.783Z,100.00
2018-02-22T14:11:26.286Z,100.00
2018-02-22T14:13:55.532Z,100.00
2018-02-22T14:16:26.622Z,100.00
2018-02-22T14:18:57.414Z,100.00
2018-02-22T14:21:26.604Z,100.00
2018-02-22T14:23:55.801Z,100.00
2018-02-22T14:26:25.767Z,100.00
2018-02-22T14:28:54.845Z,100.00
2018-02-22T14:31:25.037Z,100.00
2018-02-22T14:33:55.117Z,100.00
2018-02-22T14:36:24.357Z,100.00
2018-02-22T14:38:54.156Z,100.00
2018-02-22T14:41:25.716Z,100.00
2018-02-22T14:43:55.652Z,100.00
2018-02-22T14:46:24.892Z,100.00
2018-02-22T14:48:53.931Z,100.00
2018-02-22T14:51:23.707Z,100.00
2018-02-22T14:53:53.752Z,100.00
2018-02-22T14:56:22.977Z,100.00
2018-02-22T14:58:52.117Z,100.00
2018-02-22T15:01:21.198Z,100.00
2018-02-22T15:03:50.522Z,100.00
2018-02-22T15:06:19.644Z,100.00
2018-02-22T15:08:48.718Z,100.00
2018-02-22T15:11:17.929Z,100.00
2018-02-22T15:13:47.288Z,100.00
2018-02-22T15:16:16.496Z,100.00
2018-02-22T15:18:48.029Z,100.00
2018-02-22T15:21:18.272Z,100.00
2018-02-22T15:23:47.369Z,100.00
2018-02-22T15:26:22.983Z,100.00
2018-02-22T15:28:52.214Z,100.00
2018-02-22T15:31:22.250Z,100.00
2018-02-22T15:33:51.738Z,100.00
2018-02-22T15:36:20.947Z,100.00
2018-02-22T15:38:51.003Z,100.00
2018-02-22T15:41:21.459Z,100.00
2018-02-22T15:43:51.877Z,100.00
2018-02-22T15:46:21.327Z,100.00
2018-02-22T15:48:52.283Z,100.00
2018-02-22T15:51:21.777Z,100.00
2018-02-22T15:53:50.961Z,100.00
2018-02-22T15:56:25.236Z,100.00
2018-02-22T15:58:55.363Z,100.00
2018-02-22T16:01:24.498Z,100.00
2018-02-22T16:03:53.617Z,100.00
2018-02-22T16:06:23.598Z,100.00
2018-02-22T16:08:52.910Z,100.00
2018-02-22T16:11:25.962Z,100.00
2018-02-22T16:13:55.190Z,100.00
2018-02-22T16:16:24.495Z,100.00
2018-02-22T16:18:55.136Z,100.00
2018-02-22T16:21:24.652Z,100.00
2018-02-22T16:23:54.903Z,100.00
2018-02-22T16:26:24.928Z,100.00
2018-02-22T16:28:55.071Z,100.00
2018-02-22T16:31:25.563Z,100.00
2018-02-22T16:33:56.729Z,100.00
2018-02-22T16:36:26.107Z,100.00
2018-02-22T16:38:56.031Z,100.00
2018-02-22T16:41:26.118Z,100.00
2018-02-22T16:43:55.426Z,100.00
2018-02-22T16:46:25.756Z,100.00
2018-02-22T16:48:55.853Z,100.00
2018-02-22T16:51:25.354Z,100.00
2018-02-22T16:53:54.629Z,100.00
2018-02-22T16:56:23.765Z,100.00
2018-02-22T16:58:53.794Z,100.00
2018-02-22T17:01:23.669Z,100.00
2018-02-22T17:03:53.104Z,100.00
2018-02-22T17:06:22.155Z,100.00
2018-02-22T17:08:53.306Z,100.00
2018-02-22T17:11:23.319Z,100.00
2018-02-22T17:13:52.571Z,100.00
2018-02-22T17:16:27.574Z,100.00
2018-02-22T17:18:56.445Z,100.00
2018-02-22T17:21:25.294Z,100.00
2018-02-22T17:23:55.818Z,100.00
2018-02-22T17:26:30.325Z,100.00
2018-02-22T17:29:09.061Z,100.00
2018-02-22T17:31:43.397Z,100.00
2018-02-22T17:34:12.427Z,100.00
2018-02-22T17:36:47.020Z,100.00
2018-02-22T17:42:25.064Z,100.00
2018-02-22T17:44:54.145Z,100.00
2018-02-22T17:47:23.229Z,100.00
2018-02-22T17:49:52.144Z,100.00
2018-02-22T17:52:24.645Z,100.00
2018-02-22T17:54:54.872Z,100.00
2018-02-22T17:57:23.943Z,100.00
2018-02-22T17:59:54.190Z,100.00
2018-02-22T18:02:23.729Z,100.00
2018-02-22T18:04:53.591Z,100.00
2018-02-22T18:07:22.998Z,100.00
2018-02-22T18:09:51.988Z,100.00
2018-02-22T18:12:20.907Z,100.00
2018-02-22T18:14:50.880Z,100.00
2018-02-22T18:17:20.678Z,100.00
2018-02-22T18:19:49.636Z,100.00
2018-02-22T18:22:18.766Z,100.00
2018-02-22T18:24:47.713Z,100.00
2018-02-22T18:27:17.536Z,100.00
2018-02-22T18:29:46.512Z,100.00
2018-02-22T18:32:15.644Z,100.00
2018-02-22T18:34:45.624Z,100.00
2018-02-22T18:37:20.205Z,100.00
2018-02-22T18:39:49.211Z,100.00
2018-02-22T18:42:21.096Z,100.00
2018-02-22T18:44:55.614Z,100.00
2018-02-22T18:47:24.613Z,100.00
2018-02-22T18:49:53.551Z,100.00
2018-02-22T18:52:22.503Z,100.00
2018-02-22T18:54:51.456Z,100.00
2018-02-22T18:57:20.391Z,100.00
2018-02-22T18:59:51.007Z,100.00
2018-02-22T19:02:20.000Z,100.00
2018-02-22T19:04:48.931Z,100.00
2018-02-22T19:07:17.974Z,100.00
2018-02-22T19:09:46.879Z,100.00
2018-02-22T19:12:15.833Z,100.00
2018-02-22T19:14:47.363Z,100.00
2018-02-22T19:17:16.316Z,100.00
2018-02-22T19:19:45.242Z,100.00
2018-02-22T19:22:15.129Z,100.00
2018-02-22T19:24:44.026Z,100.00
2018-02-22T19:27:12.887Z,100.00
2018-02-22T19:29:41.824Z,100.00
2018-02-22T19:32:11.888Z,100.00
2018-02-22T19:34:40.890Z,100.00
2018-02-22T19:37:09.988Z,100.00
2018-02-22T19:39:39.179Z,100.00
2018-02-22T19:42:08.216Z,100.00
2018-02-22T19:44:38.885Z,100.00
2018-02-22T19:47:07.840Z,100.00
2018-02-22T19:49:36.789Z,100.00
2018-02-22T19:52:05.836Z,100.00
2018-02-22T19:54:34.833Z,100.00
2018-02-22T19:57:04.860Z,100.00
2018-02-22T19:59:34.711Z,100.00
2018-02-22T20:02:03.765Z,100.00
2018-02-22T20:04:32.723Z,100.00
2018-02-22T20:07:01.657Z,100.00
2018-02-22T20:09:30.559Z,100.00
2018-02-22T20:11:59.590Z,100.00
2018-02-22T20:14:28.732Z,100.00
2018-02-22T20:16:57.614Z,100.00
2018-02-22T20:19:26.488Z,100.00
2018-02-22T20:21:58.751Z,100.00
2018-02-22T20:24:27.698Z,100.00
2018-02-22T20:26:56.662Z,100.00
2018-02-22T20:29:26.569Z,100.00
2018-02-22T20:31:55.507Z,100.00
2018-02-22T20:34:24.377Z,100.00
2018-02-22T20:36:53.557Z,100.00
2018-02-22T20:39:22.624Z,100.00
2018-02-22T20:41:51.716Z,100.00
2018-02-22T20:44:21.671Z,100.00
2018-02-22T20:46:50.721Z,100.00
2018-02-22T20:49:19.662Z,100.00
2018-02-22T20:51:59.377Z,100.00
2018-02-22T20:54:28.446Z,100.00
2018-02-22T20:56:57.459Z,100.00
2018-02-22T20:59:29.143Z,100.00
2018-02-22T21:01:58.077Z,100.00
2018-02-22T21:04:27.099Z,100.00
2018-02-22T21:06:56.054Z,100.00
2018-02-22T21:09:24.965Z,100.00
2018-02-22T21:11:54.050Z,100.00
2018-02-22T21:14:25.681Z,100.00
2018-02-22T21:16:54.584Z,100.00
2018-02-22T21:19:23.562Z,100.00
2018-02-22T21:21:54.048Z,100.00
2018-02-22T21:24:22.894Z,100.00
2018-02-22T21:26:51.882Z,100.00
2018-02-22T21:29:21.606Z,100.00
2018-02-22T21:31:50.467Z,100.00
2018-02-22T21:34:19.363Z,100.00
2018-02-22T21:36:51.540Z,100.00
2018-02-22T21:39:20.449Z,100.00
2018-02-22T21:41:51.507Z,100.00
2018-02-22T21:44:21.291Z,100.00
2018-02-22T21:46:50.377Z,100.00
2018-02-22T21:49:19.271Z,100.00
2018-02-22T21:51:49.995Z,100.00
2018-02-22T21:54:18.861Z,100.00
2018-02-22T21:56:47.766Z,100.00
2018-02-22T21:59:20.271Z,100.00
2018-02-22T22:01:49.195Z,100.00
2018-02-22T22:04:18.171Z,100.00
2018-02-22T22:06:48.371Z,100.00
2018-02-22T22:09:17.245Z,100.00
2018-02-22T22:11:46.273Z,100.00
2018-02-22T22:14:15.266Z,100.00
2018-02-22T22:16:44.203Z,100.00
2018-02-22T22:19:13.465Z,100.00
2018-02-22T22:21:46.587Z,100.00
2018-02-22T22:24:15.748Z,100.00
2018-02-22T22:26:44.834Z,100.00
2018-02-22T22:29:13.818Z,100.00
2018-02-22T22:31:42.784Z,100.00
2018-02-22T22:34:11.747Z,100.00
2018-02-22T22:36:41.614Z,100.00
2018-02-22T22:39:10.498Z,100.00
2018-02-22T22:41:39.351Z,100.00
2018-02-22T22:44:13.591Z,100.00
2018-02-22T22:46:42.710Z,100.00
2018-02-22T22:49:11.613Z,100.00
2018-02-22T22:51:40.582Z,100.00
2018-02-22T22:54:09.601Z,100.00
2018-02-22T22:56:38.480Z,100.00
2018-02-22T22:59:08.538Z,100.00
2018-02-22T23:01:37.733Z,100.00
2018-02-22T23:04:06.839Z,100.00
2018-02-22T23:06:36.257Z,100.00
2018-02-22T23:09:06.463Z,100.00
2018-02-22T23:11:35.537Z,100.00
2018-02-22T23:14:09.680Z,100.00
2018-02-22T23:16:39.057Z,100.00
2018-02-22T23:19:11.715Z,100.00
2018-02-22T23:21:40.890Z,100.00
2018-02-22T23:24:09.794Z,100.00
2018-02-22T23:26:40.437Z,100.00
2018-02-22T23:29:09.322Z,100.00
2018-02-22T23:31:38.331Z,100.00
2018-02-22T23:34:07.361Z,100.00
2018-02-22T23:36:36.346Z,100.00
2018-02-22T23:39:05.494Z,100.00
2018-02-22T23:41:38.726Z,100.00
2018-02-22T23:44:07.838Z,100.00
2018-02-22T23:46:36.883Z,100.00
2018-02-22T23:49:05.834Z,100.00
2018-02-22T23:51:34.905Z,100.00
2018-02-22T23:54:03.883Z,100.00
2018-02-22T23:56:32.869Z,100.00
2018-02-22T23:59:01.731Z,100.00
